sensor_id;sensor_type;location;lat;lon;timestamp;temperature;humidity
19567;DHT22;9930;49.240;8.548;2023-02-28T00:01:27;3.50;55.20
19567;DHT22;9930;49.240;8.548;2023-02-28T00:03:53;3.50;55.20
19567;DHT22;9930;49.240;8.548;2023-02-28T00:06:21;3.50;55.20
19567;DHT22;9930;49.240;8.548;2023-02-28T00:08:47;3.50;55.20
19567;DHT22;9930;49.240;8.548;2023-02-28T00:11:19;3.40;55.10
19567;DHT22;9930;49.240;8.548;2023-02-28T00:13:47;3.50;55.20
19567;DHT22;9930;49.240;8.548;2023-02-28T00:16:21;3.40;55.20
19567;DHT22;9930;49.240;8.548;2023-02-28T00:18:48;3.40;55.20
19567;DHT22;9930;49.240;8.548;2023-02-28T00:21:15;3.40;55.20
19567;DHT22;9930;49.240;8.548;2023-02-28T00:23:41;3.40;55.30
19567;DHT22;9930;49.240;8.548;2023-02-28T00:26:09;3.40;55.30
19567;DHT22;9930;49.240;8.548;2023-02-28T00:28:35;3.30;55.30
19567;DHT22;9930;49.240;8.548;2023-02-28T00:31:01;3.30;55.30
19567;DHT22;9930;49.240;8.548;2023-02-28T00:33:28;3.30;55.40
19567;DHT22;9930;49.240;8.548;2023-02-28T00:36:04;3.30;55.40
19567;DHT22;9930;49.240;8.548;2023-02-28T00:38:31;3.30;55.30
19567;DHT22;9930;49.240;8.548;2023-02-28T00:40:59;3.30;55.20
19567;DHT22;9930;49.240;8.548;2023-02-28T00:43:34;3.30;55.30
19567;DHT22;9930;49.240;8.548;2023-02-28T00:46:02;3.20;55.40
19567;DHT22;9930;49.240;8.548;2023-02-28T00:48:30;3.20;55.30
19567;DHT22;9930;49.240;8.548;2023-02-28T00:50:57;3.20;55.40
19567;DHT22;9930;49.240;8.548;2023-02-28T00:53:23;3.20;55.40
19567;DHT22;9930;49.240;8.548;2023-02-28T00:55:53;3.10;55.50
19567;DHT22;9930;49.240;8.548;2023-02-28T00:58:19;3.20;55.60
19567;DHT22;9930;49.240;8.548;2023-02-28T01:00:45;3.10;55.50
19567;DHT22;9930;49.240;8.548;2023-02-28T01:03:16;3.10;55.70
19567;DHT22;9930;49.240;8.548;2023-02-28T01:05:47;3.10;55.60
19567;DHT22;9930;49.240;8.548;2023-02-28T01:08:14;3.10;55.50
19567;DHT22;9930;49.240;8.548;2023-02-28T01:10:42;3.10;55.50
19567;DHT22;9930;49.240;8.548;2023-02-28T01:13:08;3.10;55.60
19567;DHT22;9930;49.240;8.548;2023-02-28T01:15:36;3.10;55.70
19567;DHT22;9930;49.240;8.548;2023-02-28T01:18:03;3.00;56.30
19567;DHT22;9930;49.240;8.548;2023-02-28T01:20:31;3.00;55.70
19567;DHT22;9930;49.240;8.548;2023-02-28T01:23:05;3.00;55.80
19567;DHT22;9930;49.240;8.548;2023-02-28T01:25:34;3.00;55.80
19567;DHT22;9930;49.240;8.548;2023-02-28T01:28:02;3.00;55.80
19567;DHT22;9930;49.240;8.548;2023-02-28T01:30:30;3.00;55.90
19567;DHT22;9930;49.240;8.548;2023-02-28T01:32:55;3.00;55.80
19567;DHT22;9930;49.240;8.548;2023-02-28T01:35:21;3.00;55.90
19567;DHT22;9930;49.240;8.548;2023-02-28T01:37:47;3.00;55.90
19567;DHT22;9930;49.240;8.548;2023-02-28T01:40:13;3.00;55.90
19567;DHT22;9930;49.240;8.548;2023-02-28T01:42:39;3.00;56.00
19567;DHT22;9930;49.240;8.548;2023-02-28T01:48:04;3.00;56.20
19567;DHT22;9930;49.240;8.548;2023-02-28T01:50:39;3.00;56.20
19567;DHT22;9930;49.240;8.548;2023-02-28T01:53:13;3.00;56.30
19567;DHT22;9930;49.240;8.548;2023-02-28T01:55:47;3.00;56.30
19567;DHT22;9930;49.240;8.548;2023-02-28T01:58:17;3.00;56.30
19567;DHT22;9930;49.240;8.548;2023-02-28T02:00:43;3.00;56.40
19567;DHT22;9930;49.240;8.548;2023-02-28T02:03:12;3.00;56.40
19567;DHT22;9930;49.240;8.548;2023-02-28T02:05:40;3.00;56.60
19567;DHT22;9930;49.240;8.548;2023-02-28T02:08:10;3.00;56.40
19567;DHT22;9930;49.240;8.548;2023-02-28T02:10:48;2.90;56.40
19567;DHT22;9930;49.240;8.548;2023-02-28T02:36:38;2.80;56.80
19567;DHT22;9930;49.240;8.548;2023-02-28T02:39:17;2.80;56.80
19567;DHT22;9930;49.240;8.548;2023-02-28T02:41:53;2.70;56.70
19567;DHT22;9930;49.240;8.548;2023-02-28T02:44:41;2.70;56.70
19567;DHT22;9930;49.240;8.548;2023-02-28T02:47:19;2.70;56.90
19567;DHT22;9930;49.240;8.548;2023-02-28T02:49:52;2.70;56.80
19567;DHT22;9930;49.240;8.548;2023-02-28T02:52:25;2.70;56.90
19567;DHT22;9930;49.240;8.548;2023-02-28T02:54:59;2.70;56.90
19567;DHT22;9930;49.240;8.548;2023-02-28T02:58:03;2.70;56.90
19567;DHT22;9930;49.240;8.548;2023-02-28T03:00:42;2.70;56.90
19567;DHT22;9930;49.240;8.548;2023-02-28T03:03:13;2.70;57.00
19567;DHT22;9930;49.240;8.548;2023-02-28T03:05:49;2.70;57.00
19567;DHT22;9930;49.240;8.548;2023-02-28T03:08:15;2.70;57.10
19567;DHT22;9930;49.240;8.548;2023-02-28T03:10:44;2.60;57.10
19567;DHT22;9930;49.240;8.548;2023-02-28T03:13:34;2.60;57.20
19567;DHT22;9930;49.240;8.548;2023-02-28T03:19:31;2.60;57.20
19567;DHT22;9930;49.240;8.548;2023-02-28T03:25:39;2.60;57.20
19567;DHT22;9930;49.240;8.548;2023-02-28T03:31:26;2.50;57.10
19567;DHT22;9930;49.240;8.548;2023-02-28T03:34:06;2.50;57.30
19567;DHT22;9930;49.240;8.548;2023-02-28T03:36:38;2.50;57.20
19567;DHT22;9930;49.240;8.548;2023-02-28T03:39:17;2.50;57.30
19567;DHT22;9930;49.240;8.548;2023-02-28T03:42:03;2.50;57.30
19567;DHT22;9930;49.240;8.548;2023-02-28T03:44:38;2.50;57.40
19567;DHT22;9930;49.240;8.548;2023-02-28T03:47:14;2.50;57.40
19567;DHT22;9930;49.240;8.548;2023-02-28T03:49:50;2.50;57.50
19567;DHT22;9930;49.240;8.548;2023-02-28T03:52:27;2.50;57.50
19567;DHT22;9930;49.240;8.548;2023-02-28T03:55:05;2.40;57.50
19567;DHT22;9930;49.240;8.548;2023-02-28T04:00:37;2.40;57.60
19567;DHT22;9930;49.240;8.548;2023-02-28T04:03:07;2.40;57.60
19567;DHT22;9930;49.240;8.548;2023-02-28T04:05:46;2.40;57.70
19567;DHT22;9930;49.240;8.548;2023-02-28T04:08:16;2.40;57.70
19567;DHT22;9930;49.240;8.548;2023-02-28T04:10:51;2.40;58.30
19567;DHT22;9930;49.240;8.548;2023-02-28T04:13:22;2.40;57.70
19567;DHT22;9930;49.240;8.548;2023-02-28T04:15:47;2.30;57.80
19567;DHT22;9930;49.240;8.548;2023-02-28T04:18:13;2.40;58.00
19567;DHT22;9930;49.240;8.548;2023-02-28T04:20:39;2.30;58.00
19567;DHT22;9930;49.240;8.548;2023-02-28T04:23:06;2.30;58.10
19567;DHT22;9930;49.240;8.548;2023-02-28T04:25:34;2.40;58.20
19567;DHT22;9930;49.240;8.548;2023-02-28T04:28:02;2.40;58.30
19567;DHT22;9930;49.240;8.548;2023-02-28T04:30:29;2.40;58.40
19567;DHT22;9930;49.240;8.548;2023-02-28T04:33:03;2.50;58.70
19567;DHT22;9930;49.240;8.548;2023-02-28T04:35:29;2.40;58.50
19567;DHT22;9930;49.240;8.548;2023-02-28T04:37:57;2.50;58.70
19567;DHT22;9930;49.240;8.548;2023-02-28T04:40:25;2.50;58.50
19567;DHT22;9930;49.240;8.548;2023-02-28T04:42:50;2.50;58.60
19567;DHT22;9930;49.240;8.548;2023-02-28T04:45:16;2.60;58.60
19567;DHT22;9930;49.240;8.548;2023-02-28T04:47:42;2.60;58.60
19567;DHT22;9930;49.240;8.548;2023-02-28T04:50:08;2.60;58.50
19567;DHT22;9930;49.240;8.548;2023-02-28T04:52:34;2.60;58.50
19567;DHT22;9930;49.240;8.548;2023-02-28T04:55:00;2.70;58.50
19567;DHT22;9930;49.240;8.548;2023-02-28T04:57:28;2.70;58.50
19567;DHT22;9930;49.240;8.548;2023-02-28T04:59:55;2.70;58.80
19567;DHT22;9930;49.240;8.548;2023-02-28T05:02:24;2.70;58.50
19567;DHT22;9930;49.240;8.548;2023-02-28T05:04:50;2.80;58.60
19567;DHT22;9930;49.240;8.548;2023-02-28T05:07:20;2.80;58.60
19567;DHT22;9930;49.240;8.548;2023-02-28T05:09:46;2.80;58.60
19567;DHT22;9930;49.240;8.548;2023-02-28T05:12:11;2.80;58.60
19567;DHT22;9930;49.240;8.548;2023-02-28T05:14:38;2.90;58.60
19567;DHT22;9930;49.240;8.548;2023-02-28T05:17:04;2.90;58.60
19567;DHT22;9930;49.240;8.548;2023-02-28T05:19:32;2.90;58.60
19567;DHT22;9930;49.240;8.548;2023-02-28T05:22:00;2.90;58.80
19567;DHT22;9930;49.240;8.548;2023-02-28T05:24:26;2.90;58.70
19567;DHT22;9930;49.240;8.548;2023-02-28T05:26:53;2.90;58.80
19567;DHT22;9930;49.240;8.548;2023-02-28T05:29:22;2.90;58.80
19567;DHT22;9930;49.240;8.548;2023-02-28T05:31:50;3.00;59.10
19567;DHT22;9930;49.240;8.548;2023-02-28T05:34:16;3.00;58.80
19567;DHT22;9930;49.240;8.548;2023-02-28T05:36:42;3.00;58.90
19567;DHT22;9930;49.240;8.548;2023-02-28T05:39:10;3.00;59.40
19567;DHT22;9930;49.240;8.548;2023-02-28T05:41:44;3.10;58.90
19567;DHT22;9930;49.240;8.548;2023-02-28T05:44:12;3.10;58.90
19567;DHT22;9930;49.240;8.548;2023-02-28T05:46:40;3.10;58.90
19567;DHT22;9930;49.240;8.548;2023-02-28T05:49:06;3.10;58.80
19567;DHT22;9930;49.240;8.548;2023-02-28T05:51:32;3.10;58.70
19567;DHT22;9930;49.240;8.548;2023-02-28T05:54:02;3.10;58.70
19567;DHT22;9930;49.240;8.548;2023-02-28T05:56:33;3.10;58.80
19567;DHT22;9930;49.240;8.548;2023-02-28T05:59:04;3.10;58.90
19567;DHT22;9930;49.240;8.548;2023-02-28T06:01:40;3.10;58.80
19567;DHT22;9930;49.240;8.548;2023-02-28T06:04:14;3.10;59.20
19567;DHT22;9930;49.240;8.548;2023-02-28T06:06:48;3.10;59.10
19567;DHT22;9930;49.240;8.548;2023-02-28T06:09:17;3.10;59.30
19567;DHT22;9930;49.240;8.548;2023-02-28T06:11:45;3.10;59.10
19567;DHT22;9930;49.240;8.548;2023-02-28T06:14:17;3.20;59.90
19567;DHT22;9930;49.240;8.548;2023-02-28T06:16:44;3.20;59.10
19567;DHT22;9930;49.240;8.548;2023-02-28T06:19:12;3.20;59.20
19567;DHT22;9930;49.240;8.548;2023-02-28T06:21:40;3.20;58.90
19567;DHT22;9930;49.240;8.548;2023-02-28T06:24:06;3.20;58.90
19567;DHT22;9930;49.240;8.548;2023-02-28T06:26:33;3.20;59.00
19567;DHT22;9930;49.240;8.548;2023-02-28T06:29:00;3.20;59.00
19567;DHT22;9930;49.240;8.548;2023-02-28T06:31:27;3.20;59.00
19567;DHT22;9930;49.240;8.548;2023-02-28T06:33:55;3.20;59.00
19567;DHT22;9930;49.240;8.548;2023-02-28T06:36:21;3.20;59.40
19567;DHT22;9930;49.240;8.548;2023-02-28T06:38:47;3.20;59.00
19567;DHT22;9930;49.240;8.548;2023-02-28T06:41:26;3.20;59.40
19567;DHT22;9930;49.240;8.548;2023-02-28T06:44:16;3.20;59.20
19567;DHT22;9930;49.240;8.548;2023-02-28T06:46:46;3.20;59.10
19567;DHT22;9930;49.240;8.548;2023-02-28T06:49:12;3.20;59.10
19567;DHT22;9930;49.240;8.548;2023-02-28T06:51:40;3.30;59.10
19567;DHT22;9930;49.240;8.548;2023-02-28T06:54:08;3.30;59.40
19567;DHT22;9930;49.240;8.548;2023-02-28T06:56:36;3.30;59.30
19567;DHT22;9930;49.240;8.548;2023-02-28T06:59:03;3.30;59.30
19567;DHT22;9930;49.240;8.548;2023-02-28T07:01:32;3.30;59.20
19567;DHT22;9930;49.240;8.548;2023-02-28T07:04:02;3.40;59.20
19567;DHT22;9930;49.240;8.548;2023-02-28T07:06:33;3.40;59.10
19567;DHT22;9930;49.240;8.548;2023-02-28T07:09:05;3.40;59.10
19567;DHT22;9930;49.240;8.548;2023-02-28T07:11:32;3.40;59.10
19567;DHT22;9930;49.240;8.548;2023-02-28T07:14:00;3.40;59.20
19567;DHT22;9930;49.240;8.548;2023-02-28T07:16:26;3.50;59.10
19567;DHT22;9930;49.240;8.548;2023-02-28T07:18:53;3.40;59.20
19567;DHT22;9930;49.240;8.548;2023-02-28T07:21:19;3.50;59.20
19567;DHT22;9930;49.240;8.548;2023-02-28T07:23:45;3.50;59.30
19567;DHT22;9930;49.240;8.548;2023-02-28T07:26:13;3.50;59.30
19567;DHT22;9930;49.240;8.548;2023-02-28T07:28:43;3.60;59.20
19567;DHT22;9930;49.240;8.548;2023-02-28T07:31:13;3.60;59.20
19567;DHT22;9930;49.240;8.548;2023-02-28T07:33:39;3.70;59.30
19567;DHT22;9930;49.240;8.548;2023-02-28T07:36:11;3.70;59.20
19567;DHT22;9930;49.240;8.548;2023-02-28T07:38:43;3.70;59.20
19567;DHT22;9930;49.240;8.548;2023-02-28T07:41:11;3.70;59.20
19567;DHT22;9930;49.240;8.548;2023-02-28T07:43:37;3.70;59.30
19567;DHT22;9930;49.240;8.548;2023-02-28T07:46:11;3.70;59.20
19567;DHT22;9930;49.240;8.548;2023-02-28T07:48:40;3.80;59.30
19567;DHT22;9930;49.240;8.548;2023-02-28T07:51:09;3.80;59.30
19567;DHT22;9930;49.240;8.548;2023-02-28T07:53:35;3.80;59.30
19567;DHT22;9930;49.240;8.548;2023-02-28T07:56:03;3.80;59.30
19567;DHT22;9930;49.240;8.548;2023-02-28T07:58:34;3.90;59.20
19567;DHT22;9930;49.240;8.548;2023-02-28T08:01:10;3.90;59.30
19567;DHT22;9930;49.240;8.548;2023-02-28T08:03:39;3.90;59.40
19567;DHT22;9930;49.240;8.548;2023-02-28T08:06:07;4.00;59.40
19567;DHT22;9930;49.240;8.548;2023-02-28T08:08:40;4.00;59.20
19567;DHT22;9930;49.240;8.548;2023-02-28T08:11:08;4.10;59.40
19567;DHT22;9930;49.240;8.548;2023-02-28T08:13:33;4.20;59.30
19567;DHT22;9930;49.240;8.548;2023-02-28T08:16:01;4.20;59.30
19567;DHT22;9930;49.240;8.548;2023-02-28T08:18:35;4.30;59.20
19567;DHT22;9930;49.240;8.548;2023-02-28T08:21:08;4.30;59.10
19567;DHT22;9930;49.240;8.548;2023-02-28T08:23:35;4.40;59.10
19567;DHT22;9930;49.240;8.548;2023-02-28T08:26:06;4.40;59.00
19567;DHT22;9930;49.240;8.548;2023-02-28T08:28:32;4.50;59.00
19567;DHT22;9930;49.240;8.548;2023-02-28T08:30:59;4.40;58.80
19567;DHT22;9930;49.240;8.548;2023-02-28T08:33:26;4.50;58.80
19567;DHT22;9930;49.240;8.548;2023-02-28T08:35:56;4.50;58.80
19567;DHT22;9930;49.240;8.548;2023-02-28T08:38:25;4.50;58.90
19567;DHT22;9930;49.240;8.548;2023-02-28T08:40:57;4.60;58.90
19567;DHT22;9930;49.240;8.548;2023-02-28T08:43:27;4.60;58.90
19567;DHT22;9930;49.240;8.548;2023-02-28T08:45:56;4.60;58.80
19567;DHT22;9930;49.240;8.548;2023-02-28T08:48:30;4.70;59.00
19567;DHT22;9930;49.240;8.548;2023-02-28T08:51:02;4.70;58.80
19567;DHT22;9930;49.240;8.548;2023-02-28T08:53:39;4.80;58.90
19567;DHT22;9930;49.240;8.548;2023-02-28T08:56:07;4.90;58.80
19567;DHT22;9930;49.240;8.548;2023-02-28T08:58:39;4.90;58.80
19567;DHT22;9930;49.240;8.548;2023-02-28T09:01:11;5.00;58.70
19567;DHT22;9930;49.240;8.548;2023-02-28T09:03:50;5.00;58.70
19567;DHT22;9930;49.240;8.548;2023-02-28T09:06:17;5.10;58.80
19567;DHT22;9930;49.240;8.548;2023-02-28T09:08:47;5.20;58.80
19567;DHT22;9930;49.240;8.548;2023-02-28T09:11:16;5.20;58.70
19567;DHT22;9930;49.240;8.548;2023-02-28T09:13:42;5.30;58.70
19567;DHT22;9930;49.240;8.548;2023-02-28T09:16:14;5.40;58.50
19567;DHT22;9930;49.240;8.548;2023-02-28T09:18:43;5.40;58.30
19567;DHT22;9930;49.240;8.548;2023-02-28T09:21:12;5.40;58.30
19567;DHT22;9930;49.240;8.548;2023-02-28T09:23:42;5.50;58.30
19567;DHT22;9930;49.240;8.548;2023-02-28T09:26:22;5.50;58.20
19567;DHT22;9930;49.240;8.548;2023-02-28T09:28:50;5.60;58.10
19567;DHT22;9930;49.240;8.548;2023-02-28T09:31:22;5.60;58.00
19567;DHT22;9930;49.240;8.548;2023-02-28T09:33:52;5.70;57.90
19567;DHT22;9930;49.240;8.548;2023-02-28T09:36:20;5.70;57.80
19567;DHT22;9930;49.240;8.548;2023-02-28T09:38:46;5.70;57.70
19567;DHT22;9930;49.240;8.548;2023-02-28T09:41:15;5.80;57.90
19567;DHT22;9930;49.240;8.548;2023-02-28T09:43:47;5.80;58.00
19567;DHT22;9930;49.240;8.548;2023-02-28T09:46:31;5.90;58.10
19567;DHT22;9930;49.240;8.548;2023-02-28T09:49:02;6.00;58.10
19567;DHT22;9930;49.240;8.548;2023-02-28T09:51:56;6.10;58.00
19567;DHT22;9930;49.240;8.548;2023-02-28T09:54:34;6.10;57.70
19567;DHT22;9930;49.240;8.548;2023-02-28T09:57:13;6.20;57.50
19567;DHT22;9930;49.240;8.548;2023-02-28T10:03:36;6.30;57.40
19567;DHT22;9930;49.240;8.548;2023-02-28T10:06:20;6.40;57.40
19567;DHT22;9930;49.240;8.548;2023-02-28T10:09:11;6.50;57.10
19567;DHT22;9930;49.240;8.548;2023-02-28T10:11:55;6.50;57.00
19567;DHT22;9930;49.240;8.548;2023-02-28T10:14:30;6.50;57.20
19567;DHT22;9930;49.240;8.548;2023-02-28T10:17:11;6.60;57.10
19567;DHT22;9930;49.240;8.548;2023-02-28T10:23:00;6.80;57.20
19567;DHT22;9930;49.240;8.548;2023-02-28T10:25:27;6.80;56.90
19567;DHT22;9930;49.240;8.548;2023-02-28T10:28:12;6.90;56.70
19567;DHT22;9930;49.240;8.548;2023-02-28T10:30:46;6.90;56.30
19567;DHT22;9930;49.240;8.548;2023-02-28T10:33:32;6.90;56.40
19567;DHT22;9930;49.240;8.548;2023-02-28T10:36:03;6.90;56.20
19567;DHT22;9930;49.240;8.548;2023-02-28T10:38:37;6.90;56.30
19567;DHT22;9930;49.240;8.548;2023-02-28T10:41:16;7.00;56.30
19567;DHT22;9930;49.240;8.548;2023-02-28T10:43:53;7.00;56.60
19567;DHT22;9930;49.240;8.548;2023-02-28T10:46:40;7.10;56.40
19567;DHT22;9930;49.240;8.548;2023-02-28T10:49:17;7.10;55.90
19567;DHT22;9930;49.240;8.548;2023-02-28T10:51:51;7.10;55.80
19567;DHT22;9930;49.240;8.548;2023-02-28T10:54:28;7.10;55.80
19567;DHT22;9930;49.240;8.548;2023-02-28T10:57:16;7.00;55.60
19567;DHT22;9930;49.240;8.548;2023-02-28T10:59:46;7.00;55.50
19567;DHT22;9930;49.240;8.548;2023-02-28T11:02:36;6.90;56.10
19567;DHT22;9930;49.240;8.548;2023-02-28T11:05:46;6.90;55.30
19567;DHT22;9930;49.240;8.548;2023-02-28T11:08:16;6.80;55.40
19567;DHT22;9930;49.240;8.548;2023-02-28T11:10:55;6.80;55.40
19567;DHT22;9930;49.240;8.548;2023-02-28T11:13:33;6.80;55.80
19567;DHT22;9930;49.240;8.548;2023-02-28T11:16:07;6.80;56.00
19567;DHT22;9930;49.240;8.548;2023-02-28T11:18:47;6.80;56.00
19567;DHT22;9930;49.240;8.548;2023-02-28T11:21:26;6.80;55.80
19567;DHT22;9930;49.240;8.548;2023-02-28T11:24:12;6.80;55.70
19567;DHT22;9930;49.240;8.548;2023-02-28T11:26:47;6.80;55.50
19567;DHT22;9930;49.240;8.548;2023-02-28T11:29:23;6.80;55.50
19567;DHT22;9930;49.240;8.548;2023-02-28T11:32:20;6.80;55.60
19567;DHT22;9930;49.240;8.548;2023-02-28T11:35:01;6.70;55.70
19567;DHT22;9930;49.240;8.548;2023-02-28T11:37:31;6.70;55.60
19567;DHT22;9930;49.240;8.548;2023-02-28T11:40:19;6.70;55.80
19567;DHT22;9930;49.240;8.548;2023-02-28T11:46:31;6.80;55.50
19567;DHT22;9930;49.240;8.548;2023-02-28T11:52:48;6.80;55.70
19567;DHT22;9930;49.240;8.548;2023-02-28T11:55:39;6.90;55.90
19567;DHT22;9930;49.240;8.548;2023-02-28T12:01:01;7.10;55.80
19567;DHT22;9930;49.240;8.548;2023-02-28T12:06:48;7.10;55.80
19567;DHT22;9930;49.240;8.548;2023-02-28T12:18:08;7.50;55.30
19567;DHT22;9930;49.240;8.548;2023-02-28T12:24:27;7.60;55.10
19567;DHT22;9930;49.240;8.548;2023-02-28T12:27:16;7.60;54.80
19567;DHT22;9930;49.240;8.548;2023-02-28T12:32:54;7.70;54.50
19567;DHT22;9930;49.240;8.548;2023-02-28T12:35:41;7.70;55.10
19567;DHT22;9930;49.240;8.548;2023-02-28T12:38:39;7.70;54.40
19567;DHT22;9930;49.240;8.548;2023-02-28T12:41:16;7.70;54.20
19567;DHT22;9930;49.240;8.548;2023-02-28T12:43:55;7.70;54.20
19567;DHT22;9930;49.240;8.548;2023-02-28T12:52:01;7.80;54.40
19567;DHT22;9930;49.240;8.548;2023-02-28T12:57:46;7.90;54.60
19567;DHT22;9930;49.240;8.548;2023-02-28T13:00:22;7.90;54.00
19567;DHT22;9930;49.240;8.548;2023-02-28T13:08:47;7.90;53.70
19567;DHT22;9930;49.240;8.548;2023-02-28T13:17:02;8.00;53.90
19567;DHT22;9930;49.240;8.548;2023-02-28T13:27:50;8.00;53.60
19567;DHT22;9930;49.240;8.548;2023-02-28T13:33:37;8.00;53.70
19567;DHT22;9930;49.240;8.548;2023-02-28T13:36:26;8.00;53.70
19567;DHT22;9930;49.240;8.548;2023-02-28T13:42:34;7.90;53.40
19567;DHT22;9930;49.240;8.548;2023-02-28T13:50:29;8.00;53.90
19567;DHT22;9930;49.240;8.548;2023-02-28T13:56:07;8.00;53.60
19567;DHT22;9930;49.240;8.548;2023-02-28T13:58:57;8.10;53.70
19567;DHT22;9930;49.240;8.548;2023-02-28T14:07:45;8.10;53.50
19567;DHT22;9930;49.240;8.548;2023-02-28T14:13:10;8.10;53.30
19567;DHT22;9930;49.240;8.548;2023-02-28T14:18:34;8.20;53.50
19567;DHT22;9930;49.240;8.548;2023-02-28T14:21:19;8.20;53.50
19567;DHT22;9930;49.240;8.548;2023-02-28T14:24:29;8.20;53.20
19567;DHT22;9930;49.240;8.548;2023-02-28T14:36:03;8.20;53.10
19567;DHT22;9930;49.240;8.548;2023-02-28T14:38:48;8.20;52.70
19567;DHT22;9930;49.240;8.548;2023-02-28T14:41:44;8.30;53.00
19567;DHT22;9930;49.240;8.548;2023-02-28T14:44:24;8.20;52.60
19567;DHT22;9930;49.240;8.548;2023-02-28T14:47:02;8.30;52.70
19567;DHT22;9930;49.240;8.548;2023-02-28T14:49:35;8.30;52.60
19567;DHT22;9930;49.240;8.548;2023-02-28T14:52:25;8.20;52.80
19567;DHT22;9930;49.240;8.548;2023-02-28T14:55:01;8.20;53.50
19567;DHT22;9930;49.240;8.548;2023-02-28T14:57:34;8.20;52.80
19567;DHT22;9930;49.240;8.548;2023-02-28T15:02:46;8.20;52.80
19567;DHT22;9930;49.240;8.548;2023-02-28T15:07:42;8.20;53.10
19567;DHT22;9930;49.240;8.548;2023-02-28T15:10:21;8.20;53.00
19567;DHT22;9930;49.240;8.548;2023-02-28T15:13:14;8.20;52.80
19567;DHT22;9930;49.240;8.548;2023-02-28T15:16:04;8.20;52.90
19567;DHT22;9930;49.240;8.548;2023-02-28T15:18:49;8.20;52.70
19567;DHT22;9930;49.240;8.548;2023-02-28T15:21:22;8.20;52.80
19567;DHT22;9930;49.240;8.548;2023-02-28T15:26:31;8.20;53.00
19567;DHT22;9930;49.240;8.548;2023-02-28T15:29:05;8.20;53.00
19567;DHT22;9930;49.240;8.548;2023-02-28T15:31:43;8.20;53.00
19567;DHT22;9930;49.240;8.548;2023-02-28T15:34:22;8.20;53.00
19567;DHT22;9930;49.240;8.548;2023-02-28T15:36:53;8.20;53.00
19567;DHT22;9930;49.240;8.548;2023-02-28T15:39:25;8.10;52.90
19567;DHT22;9930;49.240;8.548;2023-02-28T15:42:16;8.10;52.90
19567;DHT22;9930;49.240;8.548;2023-02-28T15:44:44;8.10;52.80
19567;DHT22;9930;49.240;8.548;2023-02-28T15:47:27;8.10;53.00
19567;DHT22;9930;49.240;8.548;2023-02-28T15:50:05;8.10;52.70
19567;DHT22;9930;49.240;8.548;2023-02-28T15:52:43;8.00;52.90
19567;DHT22;9930;49.240;8.548;2023-02-28T15:55:28;8.00;52.90
19567;DHT22;9930;49.240;8.548;2023-02-28T15:58:01;8.00;53.00
19567;DHT22;9930;49.240;8.548;2023-02-28T16:00:31;8.00;53.00
19567;DHT22;9930;49.240;8.548;2023-02-28T16:03:25;8.00;53.00
19567;DHT22;9930;49.240;8.548;2023-02-28T16:09:13;7.90;53.00
19567;DHT22;9930;49.240;8.548;2023-02-28T16:11:48;7.80;53.00
19567;DHT22;9930;49.240;8.548;2023-02-28T16:14:28;7.80;53.00
19567;DHT22;9930;49.240;8.548;2023-02-28T16:17:06;7.80;52.90
19567;DHT22;9930;49.240;8.548;2023-02-28T16:19:36;7.70;53.00
19567;DHT22;9930;49.240;8.548;2023-02-28T16:22:03;7.80;53.10
19567;DHT22;9930;49.240;8.548;2023-02-28T16:24:31;7.70;53.10
19567;DHT22;9930;49.240;8.548;2023-02-28T16:26:57;7.70;53.00
19567;DHT22;9930;49.240;8.548;2023-02-28T16:29:30;7.60;53.00
19567;DHT22;9930;49.240;8.548;2023-02-28T16:32:04;7.60;53.10
19567;DHT22;9930;49.240;8.548;2023-02-28T16:34:35;7.60;53.20
19567;DHT22;9930;49.240;8.548;2023-02-28T16:37:09;7.60;53.20
19567;DHT22;9930;49.240;8.548;2023-02-28T16:39:40;7.50;53.20
19567;DHT22;9930;49.240;8.548;2023-02-28T16:42:08;7.50;53.20
19567;DHT22;9930;49.240;8.548;2023-02-28T16:44:41;7.50;53.20
19567;DHT22;9930;49.240;8.548;2023-02-28T16:47:10;7.40;53.20
19567;DHT22;9930;49.240;8.548;2023-02-28T16:49:36;7.40;53.20
19567;DHT22;9930;49.240;8.548;2023-02-28T16:52:03;7.40;53.30
19567;DHT22;9930;49.240;8.548;2023-02-28T16:54:32;7.40;53.30
19567;DHT22;9930;49.240;8.548;2023-02-28T16:57:00;7.30;53.20
19567;DHT22;9930;49.240;8.548;2023-02-28T16:59:28;7.30;53.30
19567;DHT22;9930;49.240;8.548;2023-02-28T17:01:56;7.20;53.30
19567;DHT22;9930;49.240;8.548;2023-02-28T17:04:25;7.20;53.40
19567;DHT22;9930;49.240;8.548;2023-02-28T17:06:52;7.20;53.40
19567;DHT22;9930;49.240;8.548;2023-02-28T17:09:22;7.10;53.40
19567;DHT22;9930;49.240;8.548;2023-02-28T17:11:50;7.10;53.40
19567;DHT22;9930;49.240;8.548;2023-02-28T17:14:16;7.10;53.50
19567;DHT22;9930;49.240;8.548;2023-02-28T17:16:42;7.00;53.50
19567;DHT22;9930;49.240;8.548;2023-02-28T17:19:16;7.00;53.60
19567;DHT22;9930;49.240;8.548;2023-02-28T17:21:45;6.90;53.50
19567;DHT22;9930;49.240;8.548;2023-02-28T17:24:19;6.90;53.50
19567;DHT22;9930;49.240;8.548;2023-02-28T17:26:53;6.80;53.60
19567;DHT22;9930;49.240;8.548;2023-02-28T17:29:21;6.80;53.60
19567;DHT22;9930;49.240;8.548;2023-02-28T17:31:47;6.80;53.60
19567;DHT22;9930;49.240;8.548;2023-02-28T17:34:16;6.70;53.70
19567;DHT22;9930;49.240;8.548;2023-02-28T17:36:45;6.70;53.80
19567;DHT22;9930;49.240;8.548;2023-02-28T17:39:13;6.60;53.70
19567;DHT22;9930;49.240;8.548;2023-02-28T17:41:43;6.60;53.80
19567;DHT22;9930;49.240;8.548;2023-02-28T17:44:11;6.60;53.90
19567;DHT22;9930;49.240;8.548;2023-02-28T17:46:39;6.50;53.80
19567;DHT22;9930;49.240;8.548;2023-02-28T17:49:08;6.50;53.90
19567;DHT22;9930;49.240;8.548;2023-02-28T17:51:35;6.50;53.90
19567;DHT22;9930;49.240;8.548;2023-02-28T17:54:04;6.50;53.90
19567;DHT22;9930;49.240;8.548;2023-02-28T17:56:30;6.40;53.90
19567;DHT22;9930;49.240;8.548;2023-02-28T17:59:01;6.40;54.00
19567;DHT22;9930;49.240;8.548;2023-02-28T18:01:29;6.30;53.90
19567;DHT22;9930;49.240;8.548;2023-02-28T18:03:55;6.40;54.00
19567;DHT22;9930;49.240;8.548;2023-02-28T18:06:44;6.30;54.10
19567;DHT22;9930;49.240;8.548;2023-02-28T18:09:22;6.30;54.10
19567;DHT22;9930;49.240;8.548;2023-02-28T18:11:54;6.20;54.00
19567;DHT22;9930;49.240;8.548;2023-02-28T18:14:22;6.20;54.10
19567;DHT22;9930;49.240;8.548;2023-02-28T18:16:51;6.20;54.10
19567;DHT22;9930;49.240;8.548;2023-02-28T18:19:23;6.20;54.20
19567;DHT22;9930;49.240;8.548;2023-02-28T18:21:51;6.10;54.10
19567;DHT22;9930;49.240;8.548;2023-02-28T18:24:21;6.10;54.20
19567;DHT22;9930;49.240;8.548;2023-02-28T18:26:48;6.10;54.20
19567;DHT22;9930;49.240;8.548;2023-02-28T18:29:21;6.00;54.20
19567;DHT22;9930;49.240;8.548;2023-02-28T18:31:49;6.00;54.30
19567;DHT22;9930;49.240;8.548;2023-02-28T18:34:15;6.00;54.30
19567;DHT22;9930;49.240;8.548;2023-02-28T18:36:45;6.00;54.30
19567;DHT22;9930;49.240;8.548;2023-02-28T18:39:15;5.90;54.30
19567;DHT22;9930;49.240;8.548;2023-02-28T18:41:44;5.90;54.40
19567;DHT22;9930;49.240;8.548;2023-02-28T18:44:10;5.90;54.40
19567;DHT22;9930;49.240;8.548;2023-02-28T18:46:35;5.90;54.40
19567;DHT22;9930;49.240;8.548;2023-02-28T18:49:03;5.80;54.40
19567;DHT22;9930;49.240;8.548;2023-02-28T18:51:31;5.80;54.40
19567;DHT22;9930;49.240;8.548;2023-02-28T18:54:00;5.80;54.50
19567;DHT22;9930;49.240;8.548;2023-02-28T18:56:26;5.70;54.40
19567;DHT22;9930;49.240;8.548;2023-02-28T18:58:52;5.70;54.50
19567;DHT22;9930;49.240;8.548;2023-02-28T19:01:23;5.70;54.50
19567;DHT22;9930;49.240;8.548;2023-02-28T19:03:54;5.70;54.60
19567;DHT22;9930;49.240;8.548;2023-02-28T19:06:21;5.70;54.60